sensor_id;sensor_type;location;lat;lon;timestamp;pressure;altitude;pressure_sealevel;temperature;humidity
79584;BME280;69053;57.338;18.700;2024-01-07T00:02:22;102541.47;;;-0.95;54.46
79584;BME280;69053;57.338;18.700;2024-01-07T00:05:22;102543.41;;;-1.11;54.64
79584;BME280;69053;57.338;18.700;2024-01-07T00:08:22;102552.09;;;-1.08;54.24
79584;BME280;69053;57.338;18.700;2024-01-07T00:11:23;102555.63;;;-1.07;53.96
79584;BME280;69053;57.338;18.700;2024-01-07T00:14:23;102577.38;;;-1.14;53.92
79584;BME280;69053;57.338;18.700;2024-01-07T00:17:24;102569.34;;;-1.14;52.97
79584;BME280;69053;57.338;18.700;2024-01-07T00:20:24;102569.47;;;-1.15;52.97
79584;BME280;69053;57.338;18.700;2024-01-07T00:23:25;102577.38;;;-1.14;53.46
79584;BME280;69053;57.338;18.700;2024-01-07T00:26:25;102588.06;;;-1.14;54.07
79584;BME280;69053;57.338;18.700;2024-01-07T00:29:26;102592.66;;;-1.16;53.46
79584;BME280;69053;57.338;18.700;2024-01-07T00:32:26;102587.69;;;-1.22;53.13
79584;BME280;69053;57.338;18.700;2024-01-07T00:35:27;102595.63;;;-1.20;52.83
79584;BME280;69053;57.338;18.700;2024-01-07T00:38:27;102601.50;;;-1.29;52.25
79584;BME280;69053;57.338;18.700;2024-01-07T00:41:28;102596.84;;;-1.26;52.17
79584;BME280;69053;57.338;18.700;2024-01-07T00:44:30;102596.75;;;-1.24;52.50
79584;BME280;69053;57.338;18.700;2024-01-07T00:47:30;102608.13;;;-1.21;53.19
79584;BME280;69053;57.338;18.700;2024-01-07T00:50:31;102609.84;;;-1.20;53.04
79584;BME280;69053;57.338;18.700;2024-01-07T00:53:31;102605.75;;;-1.11;53.51
79584;BME280;69053;57.338;18.700;2024-01-07T00:56:32;102620.47;;;-1.18;53.11
79584;BME280;69053;57.338;18.700;2024-01-07T00:59:32;102623.03;;;-1.17;53.02
79584;BME280;69053;57.338;18.700;2024-01-07T01:02:33;102622.25;;;-1.19;52.20
79584;BME280;69053;57.338;18.700;2024-01-07T01:05:34;102617.88;;;-1.20;52.55
79584;BME280;69053;57.338;18.700;2024-01-07T01:08:34;102616.44;;;-1.25;52.54
79584;BME280;69053;57.338;18.700;2024-01-07T01:11:34;102625.50;;;-1.14;52.49
79584;BME280;69053;57.338;18.700;2024-01-07T01:14:35;102625.03;;;-1.20;53.23
79584;BME280;69053;57.338;18.700;2024-01-07T01:17:35;102630.00;;;-1.14;53.00
79584;BME280;69053;57.338;18.700;2024-01-07T01:20:36;102632.00;;;-1.18;52.74
79584;BME280;69053;57.338;18.700;2024-01-07T01:23:36;102635.53;;;-1.17;52.61
79584;BME280;69053;57.338;18.700;2024-01-07T01:26:37;102627.59;;;-1.19;52.53
79584;BME280;69053;57.338;18.700;2024-01-07T01:29:39;102650.22;;;-1.24;52.21
79584;BME280;69053;57.338;18.700;2024-01-07T01:32:41;102641.84;;;-1.18;52.47
79584;BME280;69053;57.338;18.700;2024-01-07T01:35:42;102633.66;;;-1.15;51.92
79584;BME280;69053;57.338;18.700;2024-01-07T01:38:43;102637.19;;;-1.15;51.67
79584;BME280;69053;57.338;18.700;2024-01-07T01:41:44;102646.72;;;-1.10;52.26
79584;BME280;69053;57.338;18.700;2024-01-07T01:44:46;102652.75;;;-1.07;52.36
79584;BME280;69053;57.338;18.700;2024-01-07T01:47:47;102650.16;;;-1.08;52.20
79584;BME280;69053;57.338;18.700;2024-01-07T01:50:48;102648.28;;;-1.06;52.54
79584;BME280;69053;57.338;18.700;2024-01-07T01:53:50;102660.25;;;-0.98;52.18
79584;BME280;69053;57.338;18.700;2024-01-07T01:56:51;102658.91;;;-0.90;52.64
79584;BME280;69053;57.338;18.700;2024-01-07T01:59:51;102662.44;;;-0.90;52.47
79584;BME280;69053;57.338;18.700;2024-01-07T02:02:53;102671.97;;;-1.00;52.57
79584;BME280;69053;57.338;18.700;2024-01-07T02:05:55;102671.03;;;-0.99;52.27
79584;BME280;69053;57.338;18.700;2024-01-07T02:08:56;102674.72;;;-1.02;52.64
79584;BME280;69053;57.338;18.700;2024-01-07T02:12:04;102685.75;;;-0.92;52.66
79584;BME280;69053;57.338;18.700;2024-01-07T02:15:05;102685.94;;;-0.95;52.49
79584;BME280;69053;57.338;18.700;2024-01-07T02:18:06;102686.50;;;-0.90;52.42
79584;BME280;69053;57.338;18.700;2024-01-07T02:21:07;102686.50;;;-0.90;52.14
79584;BME280;69053;57.338;18.700;2024-01-07T02:24:15;102688.31;;;-1.05;52.22
79584;BME280;69053;57.338;18.700;2024-01-07T02:27:15;102683.75;;;-0.88;52.31
79584;BME280;69053;57.338;18.700;2024-01-07T02:30:16;102692.44;;;-0.85;52.12
79584;BME280;69053;57.338;18.700;2024-01-07T02:33:17;102694.75;;;-0.79;52.50
79584;BME280;69053;57.338;18.700;2024-01-07T02:36:18;102694.19;;;-0.84;52.54
79584;BME280;69053;57.338;18.700;2024-01-07T02:39:18;102702.38;;;-0.87;52.40
79584;BME280;69053;57.338;18.700;2024-01-07T02:42:19;102705.56;;;-0.80;52.49
79584;BME280;69053;57.338;18.700;2024-01-07T02:45:19;102699.06;;;-0.76;52.55
79584;BME280;69053;57.338;18.700;2024-01-07T02:48:19;102701.47;;;-0.71;52.91
79584;BME280;69053;57.338;18.700;2024-01-07T02:51:20;102704.22;;;-0.73;52.65
79584;BME280;69053;57.338;18.700;2024-01-07T02:54:20;102700.41;;;-0.69;52.82
79584;BME280;69053;57.338;18.700;2024-01-07T02:57:21;102700.69;;;-0.73;53.09
79584;BME280;69053;57.338;18.700;2024-01-07T03:00:21;102697.44;;;-0.64;53.55
79584;BME280;69053;57.338;18.700;2024-01-07T03:03:22;102702.63;;;-0.61;53.06
79584;BME280;69053;57.338;18.700;2024-01-07T03:06:26;102701.47;;;-0.57;53.20
79584;BME280;69053;57.338;18.700;2024-01-07T03:09:27;102710.28;;;-0.55;53.30
79584;BME280;69053;57.338;18.700;2024-01-07T03:12:28;102711.81;;;-0.51;53.42
79584;BME280;69053;57.338;18.700;2024-01-07T03:15:28;102709.72;;;-0.60;53.12
79584;BME280;69053;57.338;18.700;2024-01-07T03:18:28;102707.78;;;-0.58;53.12
79584;BME280;69053;57.338;18.700;2024-01-07T03:21:31;102707.47;;;-0.53;53.44
79584;BME280;69053;57.338;18.700;2024-01-07T03:24:31;102710.47;;;-0.58;53.39
79584;BME280;69053;57.338;18.700;2024-01-07T03:27:32;102710.06;;;-0.52;52.67
79584;BME280;69053;57.338;18.700;2024-01-07T03:30:32;102706.34;;;-0.49;52.48
79584;BME280;69053;57.338;18.700;2024-01-07T03:33:32;102711.63;;;-0.48;52.63
79584;BME280;69053;57.338;18.700;2024-01-07T03:36:33;102716.66;;;-0.43;52.16
79584;BME280;69053;57.338;18.700;2024-01-07T03:39:33;102706.84;;;-0.43;52.41
79584;BME280;69053;57.338;18.700;2024-01-07T03:42:34;102713.63;;;-0.37;52.26
79584;BME280;69053;57.338;18.700;2024-01-07T03:45:34;102716.56;;;-0.42;52.58
79584;BME280;69053;57.338;18.700;2024-01-07T03:48:36;102735.41;;;-0.43;52.53
79584;BME280;69053;57.338;18.700;2024-01-07T03:51:36;102718.72;;;-0.32;51.51
79584;BME280;69053;57.338;18.700;2024-01-07T03:54:37;102723.75;;;-0.28;52.43
79584;BME280;69053;57.338;18.700;2024-01-07T03:57:37;102718.41;;;-0.28;52.79
79584;BME280;69053;57.338;18.700;2024-01-07T04:00:37;102714.03;;;-0.29;52.87
79584;BME280;69053;57.338;18.700;2024-01-07T04:03:38;102713.84;;;-0.26;53.27
79584;BME280;69053;57.338;18.700;2024-01-07T04:06:38;102719.75;;;-0.21;53.66
79584;BME280;69053;57.338;18.700;2024-01-07T04:09:39;102700.41;;;-0.11;53.96
79584;BME280;69053;57.338;18.700;2024-01-07T04:12:39;102713.91;;;-0.13;53.89
79584;BME280;69053;57.338;18.700;2024-01-07T04:15:40;102712.66;;;-0.07;53.82
79584;BME280;69053;57.338;18.700;2024-01-07T04:18:40;102714.75;;;0.02;54.15
79584;BME280;69053;57.338;18.700;2024-01-07T04:21:45;102719.25;;;0.02;54.15
79584;BME280;69053;57.338;18.700;2024-01-07T04:24:46;102719.91;;;0.05;54.05
79584;BME280;69053;57.338;18.700;2024-01-07T04:27:46;102725.47;;;0.02;54.79
79584;BME280;69053;57.338;18.700;2024-01-07T04:30:47;102725.94;;;0.09;54.74
79584;BME280;69053;57.338;18.700;2024-01-07T04:33:49;102723.66;;;0.03;54.61
79584;BME280;69053;57.338;18.700;2024-01-07T04:36:49;102732.25;;;0.08;54.31
79584;BME280;69053;57.338;18.700;2024-01-07T04:39:50;102723.84;;;0.14;54.03
79584;BME280;69053;57.338;18.700;2024-01-07T04:42:50;102731.66;;;0.17;54.09
79584;BME280;69053;57.338;18.700;2024-01-07T04:45:51;102735.22;;;0.17;53.55
79584;BME280;69053;57.338;18.700;2024-01-07T04:48:52;102740.69;;;0.16;53.49
79584;BME280;69053;57.338;18.700;2024-01-07T04:51:52;102735.41;;;0.14;53.50
79584;BME280;69053;57.338;18.700;2024-01-07T04:54:53;102739.13;;;0.12;53.43
79584;BME280;69053;57.338;18.700;2024-01-07T04:57:54;102739.03;;;0.13;53.05
79584;BME280;69053;57.338;18.700;2024-01-07T05:00:54;102749.66;;;0.15;52.70
79584;BME280;69053;57.338;18.700;2024-01-07T05:03:55;102755.44;;;0.09;52.88
79584;BME280;69053;57.338;18.700;2024-01-07T05:06:55;102755.13;;;0.13;52.79
79584;BME280;69053;57.338;18.700;2024-01-07T05:09:56;102744.31;;;0.15;52.50
79584;BME280;69053;57.338;18.700;2024-01-07T05:12:56;102750.91;;;0.09;52.38
79584;BME280;69053;57.338;18.700;2024-01-07T05:15:57;102757.13;;;0.10;52.48
79584;BME280;69053;57.338;18.700;2024-01-07T05:18:57;102756.09;;;0.12;52.55
79584;BME280;69053;57.338;18.700;2024-01-07T05:21:58;102757.25;;;-0.21;53.11
79584;BME280;69053;57.338;18.700;2024-01-07T05:25:00;102754.63;;;-0.51;52.97
79584;BME280;69053;57.338;18.700;2024-01-07T05:28:00;102770.31;;;-0.59;53.72
79584;BME280;69053;57.338;18.700;2024-01-07T05:31:00;102781.78;;;-0.57;53.63
79584;BME280;69053;57.338;18.700;2024-01-07T05:34:01;102790.53;;;-0.69;53.75
79584;BME280;69053;57.338;18.700;2024-01-07T05:37:02;102793.03;;;-0.66;53.70
79584;BME280;69053;57.338;18.700;2024-01-07T05:40:02;102794.94;;;-0.68;53.74
79584;BME280;69053;57.338;18.700;2024-01-07T05:43:03;102800.06;;;-0.80;53.30
79584;BME280;69053;57.338;18.700;2024-01-07T05:46:04;102798.44;;;-0.82;53.49
79584;BME280;69053;57.338;18.700;2024-01-07T05:49:04;102808.34;;;-0.84;52.96
79584;BME280;69053;57.338;18.700;2024-01-07T05:52:05;102809.53;;;-0.74;52.94
79584;BME280;69053;57.338;18.700;2024-01-07T05:55:05;102817.09;;;-0.81;52.77
79584;BME280;69053;57.338;18.700;2024-01-07T05:58:06;102820.06;;;-0.71;53.50
79584;BME280;69053;57.338;18.700;2024-01-07T06:01:07;102823.03;;;-0.76;53.87
79584;BME280;69053;57.338;18.700;2024-01-07T06:04:08;102824.47;;;-0.70;53.68
79584;BME280;69053;57.338;18.700;2024-01-07T06:07:09;102833.53;;;-0.72;53.13
79584;BME280;69053;57.338;18.700;2024-01-07T06:10:10;102826.75;;;-0.78;53.83
79584;BME280;69053;57.338;18.700;2024-01-07T06:13:10;102828.91;;;-0.85;52.89
79584;BME280;69053;57.338;18.700;2024-01-07T06:16:11;102841.44;;;-0.85;53.12
79584;BME280;69053;57.338;18.700;2024-01-07T06:19:11;102843.94;;;-0.82;53.01
79584;BME280;69053;57.338;18.700;2024-01-07T06:22:12;102839.94;;;-0.75;53.51
79584;BME280;69053;57.338;18.700;2024-01-07T06:25:12;102849.00;;;-0.78;52.81
79584;BME280;69053;57.338;18.700;2024-01-07T06:28:13;102855.22;;;-0.77;53.22
79584;BME280;69053;57.338;18.700;2024-01-07T06:31:13;102845.97;;;-0.71;52.92
79584;BME280;69053;57.338;18.700;2024-01-07T06:34:13;102848.75;;;-0.73;53.31
79584;BME280;69053;57.338;18.700;2024-01-07T06:37:14;102853.53;;;-0.64;53.00
79584;BME280;69053;57.338;18.700;2024-01-07T06:40:14;102858.72;;;-0.61;53.29
79584;BME280;69053;57.338;18.700;2024-01-07T06:43:15;102871.44;;;-0.64;53.10
79584;BME280;69053;57.338;18.700;2024-01-07T06:46:15;102867.81;;;-0.63;53.74
79584;BME280;69053;57.338;18.700;2024-01-07T06:49:16;102884.03;;;-0.66;53.60
79584;BME280;69053;57.338;18.700;2024-01-07T06:52:16;102883.28;;;-0.68;53.62
79584;BME280;69053;57.338;18.700;2024-01-07T06:55:17;102881.78;;;-0.74;53.33
79584;BME280;69053;57.338;18.700;2024-01-07T06:58:17;102897.69;;;-0.71;53.40
79584;BME280;69053;57.338;18.700;2024-01-07T07:01:21;102890.78;;;-0.75;52.74
79584;BME280;69053;57.338;18.700;2024-01-07T07:04:23;102890.28;;;-0.82;51.52
79584;BME280;69053;57.338;18.700;2024-01-07T07:07:24;102896.34;;;-0.94;52.06
79584;BME280;69053;57.338;18.700;2024-01-07T07:10:24;102890.63;;;-0.88;51.92
79584;BME280;69053;57.338;18.700;2024-01-07T07:13:25;102897.63;;;-0.85;52.23
79584;BME280;69053;57.338;18.700;2024-01-07T07:16:25;102908.66;;;-0.76;52.30
79584;BME280;69053;57.338;18.700;2024-01-07T07:19:26;102911.78;;;-0.83;53.27
79584;BME280;69053;57.338;18.700;2024-01-07T07:22:26;102918.31;;;-0.73;53.93
79584;BME280;69053;57.338;18.700;2024-01-07T07:25:27;102928.25;;;-0.75;53.83
79584;BME280;69053;57.338;18.700;2024-01-07T07:28:27;102930.56;;;-0.69;54.21
79584;BME280;69053;57.338;18.700;2024-01-07T07:31:28;102936.97;;;-0.71;53.86
79584;BME280;69053;57.338;18.700;2024-01-07T07:34:28;102932.31;;;-0.84;53.89
79584;BME280;69053;57.338;18.700;2024-01-07T07:37:29;102935.84;;;-0.83;52.74
79584;BME280;69053;57.338;18.700;2024-01-07T07:40:29;102935.63;;;-0.95;53.08
79584;BME280;69053;57.338;18.700;2024-01-07T07:43:29;102942.16;;;-1.00;53.52
79584;BME280;69053;57.338;18.700;2024-01-07T07:46:30;102956.13;;;-0.95;52.94
79584;BME280;69053;57.338;18.700;2024-01-07T07:49:30;102949.41;;;-1.02;53.30
79584;BME280;69053;57.338;18.700;2024-01-07T07:52:31;102956.03;;;-1.09;53.10
79584;BME280;69053;57.338;18.700;2024-01-07T07:55:31;102951.63;;;-1.10;52.08
79584;BME280;69053;57.338;18.700;2024-01-07T07:58:32;102962.69;;;-1.01;52.44
79584;BME280;69053;57.338;18.700;2024-01-07T08:01:32;102958.72;;;-1.09;52.45
79584;BME280;69053;57.338;18.700;2024-01-07T08:04:32;102969.41;;;-1.09;52.93
79584;BME280;69053;57.338;18.700;2024-01-07T08:07:33;102976.91;;;-1.00;52.82
79584;BME280;69053;57.338;18.700;2024-01-07T08:10:33;102980.28;;;-0.97;53.18
79584;BME280;69053;57.338;18.700;2024-01-07T08:13:36;102979.28;;;-0.94;53.15
79584;BME280;69053;57.338;18.700;2024-01-07T08:16:37;102992.13;;;-0.85;52.71
79584;BME280;69053;57.338;18.700;2024-01-07T08:19:38;102990.06;;;-0.80;52.31
79584;BME280;69053;57.338;18.700;2024-01-07T08:22:38;102997.91;;;-0.77;51.83
79584;BME280;69053;57.338;18.700;2024-01-07T08:25:39;103008.31;;;-0.70;52.22
79584;BME280;69053;57.338;18.700;2024-01-07T08:28:39;103005.78;;;-0.73;51.61
79584;BME280;69053;57.338;18.700;2024-01-07T08:31:40;103010.09;;;-0.71;51.09
79584;BME280;69053;57.338;18.700;2024-01-07T08:34:42;103007.69;;;-0.76;51.82
79584;BME280;69053;57.338;18.700;2024-01-07T08:37:42;103009.94;;;-0.84;52.07
79584;BME280;69053;57.338;18.700;2024-01-07T08:40:43;103004.81;;;-0.72;51.68
79584;BME280;69053;57.338;18.700;2024-01-07T08:43:45;103007.78;;;-0.77;51.19
79584;BME280;69053;57.338;18.700;2024-01-07T08:46:45;103016.38;;;-0.88;51.73
79584;BME280;69053;57.338;18.700;2024-01-07T08:49:46;103020.19;;;-0.76;51.47
79584;BME280;69053;57.338;18.700;2024-01-07T08:52:47;103031.41;;;-0.85;52.04
79584;BME280;69053;57.338;18.700;2024-01-07T08:55:47;103036.75;;;-1.01;51.63
79584;BME280;69053;57.338;18.700;2024-01-07T08:58:48;103041.66;;;-0.93;51.36
79584;BME280;69053;57.338;18.700;2024-01-07T09:01:48;103058.34;;;-0.88;51.87
79584;BME280;69053;57.338;18.700;2024-01-07T09:04:49;103051.00;;;-0.85;51.25
79584;BME280;69053;57.338;18.700;2024-01-07T09:07:50;103048.94;;;-0.80;51.79
79584;BME280;69053;57.338;18.700;2024-01-07T09:10:50;103069.84;;;-0.70;51.31
79584;BME280;69053;57.338;18.700;2024-01-07T09:13:51;103069.75;;;-0.69;51.74
79584;BME280;69053;57.338;18.700;2024-01-07T09:16:51;103073.38;;;-0.70;52.03
79584;BME280;69053;57.338;18.700;2024-01-07T09:19:51;103070.09;;;-0.75;51.91
79584;BME280;69053;57.338;18.700;2024-01-07T09:22:52;103075.28;;;-0.72;51.79
79584;BME280;69053;57.338;18.700;2024-01-07T09:25:52;103078.50;;;-0.65;52.17
79584;BME280;69053;57.338;18.700;2024-01-07T09:28:53;103079.50;;;-0.68;52.40
79584;BME280;69053;57.338;18.700;2024-01-07T09:31:53;103079.69;;;-0.71;52.12
79584;BME280;69053;57.338;18.700;2024-01-07T09:34:54;103084.50;;;-0.78;51.85
79584;BME280;69053;57.338;18.700;2024-01-07T09:37:54;103081.66;;;-0.74;52.29
79584;BME280;69053;57.338;18.700;2024-01-07T09:40:55;103087.09;;;-0.76;51.66
79584;BME280;69053;57.338;18.700;2024-01-07T09:43:55;103092.91;;;-0.68;52.48
79584;BME280;69053;57.338;18.700;2024-01-07T09:46:58;103090.91;;;-0.64;52.71
79584;BME280;69053;57.338;18.700;2024-01-07T09:49:59;103085.41;;;-0.45;52.55
79584;BME280;69053;57.338;18.700;2024-01-07T09:53:01;103095.50;;;-0.34;52.01
79584;BME280;69053;57.338;18.700;2024-01-07T09:59:12;103086.34;;;-0.14;52.28
79584;BME280;69053;57.338;18.700;2024-01-07T10:02:15;103091.91;;;-0.02;51.36
79584;BME280;69053;57.338;18.700;2024-01-07T10:05:16;103094.78;;;0.10;51.61
79584;BME280;69053;57.338;18.700;2024-01-07T10:08:17;103097.72;;;0.05;50.84
79584;BME280;69053;57.338;18.700;2024-01-07T10:11:17;103092.28;;;0.07;51.46
79584;BME280;69053;57.338;18.700;2024-01-07T10:14:18;103102.66;;;0.13;51.49
79584;BME280;69053;57.338;18.700;2024-01-07T10:17:22;103106.66;;;0.06;50.13
79584;BME280;69053;57.338;18.700;2024-01-07T10:20:28;103105.09;;;0.02;49.68
79584;BME280;69053;57.338;18.700;2024-01-07T10:23:29;103098.53;;;0.07;50.50
79584;BME280;69053;57.338;18.700;2024-01-07T10:26:29;103096.28;;;-0.01;50.40
79584;BME280;69053;57.338;18.700;2024-01-07T10:29:30;103111.84;;;-0.07;50.89
79584;BME280;69053;57.338;18.700;2024-01-07T10:32:30;103109.84;;;-0.04;51.04
79584;BME280;69053;57.338;18.700;2024-01-07T10:35:36;103114.28;;;-0.18;49.42
79584;BME280;69053;57.338;18.700;2024-01-07T10:38:38;103108.63;;;-0.14;49.34
79584;BME280;69053;57.338;18.700;2024-01-07T10:41:41;103123.25;;;-0.04;49.74
79584;BME280;69053;57.338;18.700;2024-01-07T10:44:42;103121.63;;;-0.06;50.20
79584;BME280;69053;57.338;18.700;2024-01-07T10:47:48;103114.19;;;-0.01;49.56
79584;BME280;69053;57.338;18.700;2024-01-07T10:50:50;103124.13;;;-0.03;49.49
79584;BME280;69053;57.338;18.700;2024-01-07T10:53:56;103125.91;;;-0.04;50.14
79584;BME280;69053;57.338;18.700;2024-01-07T10:57:07;103119.19;;;-0.11;50.64
79584;BME280;69053;57.338;18.700;2024-01-07T11:00:11;103136.13;;;0.06;49.89
79584;BME280;69053;57.338;18.700;2024-01-07T11:03:35;103130.59;;;0.09;49.99
79584;BME280;69053;57.338;18.700;2024-01-07T11:07:18;103127.50;;;0.01;50.04
79584;BME280;69053;57.338;18.700;2024-01-07T11:10:24;103116.34;;;-0.08;50.33
79584;BME280;69053;57.338;18.700;2024-01-07T11:13:32;103124.38;;;-0.08;50.36
79584;BME280;69053;57.338;18.700;2024-01-07T11:16:43;103117.66;;;-0.15;50.43
79584;BME280;69053;57.338;18.700;2024-01-07T11:19:51;103113.75;;;-0.09;50.53
79584;BME280;69053;57.338;18.700;2024-01-07T11:22:51;103117.81;;;-0.02;50.44
79584;BME280;69053;57.338;18.700;2024-01-07T11:25:52;103122.13;;;0.01;50.87
79584;BME280;69053;57.338;18.700;2024-01-07T11:28:54;103128.63;;;0.12;50.89
79584;BME280;69053;57.338;18.700;2024-01-07T11:31:56;103122.16;;;0.31;50.97
79584;BME280;69053;57.338;18.700;2024-01-07T11:34:56;103124.75;;;0.32;51.37
79584;BME280;69053;57.338;18.700;2024-01-07T11:37:59;103108.75;;;0.31;51.10
79584;BME280;69053;57.338;18.700;2024-01-07T11:41:00;103116.19;;;0.42;51.12
79584;BME280;69053;57.338;18.700;2024-01-07T11:44:01;103112.75;;;0.40;51.00
79584;BME280;69053;57.338;18.700;2024-01-07T11:47:04;103117.22;;;0.39;51.19
79584;BME280;69053;57.338;18.700;2024-01-07T11:50:05;103115.13;;;0.44;51.32
79584;BME280;69053;57.338;18.700;2024-01-07T11:53:06;103114.28;;;0.44;51.37
79584;BME280;69053;57.338;18.700;2024-01-07T11:56:08;103122.19;;;0.61;51.35
79584;BME280;69053;57.338;18.700;2024-01-07T11:59:09;103124.72;;;0.79;50.95
79584;BME280;69053;57.338;18.700;2024-01-07T12:02:09;103123.28;;;0.87;50.25
79584;BME280;69053;57.338;18.700;2024-01-07T12:05:10;103124.09;;;1.04;50.26
79584;BME280;69053;57.338;18.700;2024-01-07T12:08:10;103127.44;;;1.07;50.50
79584;BME280;69053;57.338;18.700;2024-01-07T12:11:12;103122.06;;;0.93;50.88
79584;BME280;69053;57.338;18.700;2024-01-07T12:14:13;103129.16;;;0.94;51.10
79584;BME280;69053;57.338;18.700;2024-01-07T12:17:17;103121.84;;;0.96;50.98
79584;BME280;69053;57.338;18.700;2024-01-07T12:20:17;103128.66;;;0.87;51.11
79584;BME280;69053;57.338;18.700;2024-01-07T12:23:17;103127.41;;;0.79;50.97
79584;BME280;69053;57.338;18.700;2024-01-07T12:26:18;103125.59;;;0.79;51.39
79584;BME280;69053;57.338;18.700;2024-01-07T12:29:20;103130.25;;;0.75;50.82
79584;BME280;69053;57.338;18.700;2024-01-07T12:32:21;103123.00;;;0.78;51.12
79584;BME280;69053;57.338;18.700;2024-01-07T12:35:25;103130.16;;;0.77;51.00
79584;BME280;69053;57.338;18.700;2024-01-07T12:38:28;103135.16;;;0.69;50.79
79584;BME280;69053;57.338;18.700;2024-01-07T12:41:29;103131.22;;;0.74;50.66
79584;BME280;69053;57.338;18.700;2024-01-07T12:44:29;103136.41;;;0.78;50.05
79584;BME280;69053;57.338;18.700;2024-01-07T12:47:30;103144.06;;;0.84;50.61
79584;BME280;69053;57.338;18.700;2024-01-07T12:50:30;103138.03;;;0.80;50.11
79584;BME280;69053;57.338;18.700;2024-01-07T12:53:31;103140.63;;;0.82;50.52
79584;BME280;69053;57.338;18.700;2024-01-07T12:56:32;103135.34;;;0.80;51.02
79584;BME280;69053;57.338;18.700;2024-01-07T12:59:32;103142.63;;;0.78;51.15
79584;BME280;69053;57.338;18.700;2024-01-07T13:02:33;103156.09;;;0.62;51.02
79584;BME280;69053;57.338;18.700;2024-01-07T13:05:34;103158.63;;;0.49;51.85
79584;BME280;69053;57.338;18.700;2024-01-07T13:08:35;103167.22;;;0.40;52.02
79584;BME280;69053;57.338;18.700;2024-01-07T13:11:35;103157.44;;;0.39;51.09
79584;BME280;69053;57.338;18.700;2024-01-07T13:14:36;103171.09;;;0.50;51.79
79584;BME280;69053;57.338;18.700;2024-01-07T13:17:37;103165.09;;;0.61;51.25
79584;BME280;69053;57.338;18.700;2024-01-07T13:20:37;103166.00;;;0.46;51.81
79584;BME280;69053;57.338;18.700;2024-01-07T13:23:41;103176.50;;;0.34;51.13
79584;BME280;69053;57.338;18.700;2024-01-07T13:26:44;103180.75;;;0.23;51.65
79584;BME280;69053;57.338;18.700;2024-01-07T13:29:44;103187.56;;;0.12;52.08
79584;BME280;69053;57.338;18.700;2024-01-07T13:32:48;103195.19;;;0.04;52.03
79584;BME280;69053;57.338;18.700;2024-01-07T13:35:49;103191.03;;;-0.02;51.64
79584;BME280;69053;57.338;18.700;2024-01-07T13:38:50;103195.69;;;-0.05;51.25
79584;BME280;69053;57.338;18.700;2024-01-07T13:41:51;103195.94;;;-0.10;52.46
79584;BME280;69053;57.338;18.700;2024-01-07T13:44:53;103194.91;;;-0.07;52.71
79584;BME280;69053;57.338;18.700;2024-01-07T13:47:54;103196.03;;;-0.11;53.41
79584;BME280;69053;57.338;18.700;2024-01-07T13:50:55;103201.38;;;-0.11;53.05
79584;BME280;69053;57.338;18.700;2024-01-07T13:53:58;103199.91;;;-0.17;53.55
79584;BME280;69053;57.338;18.700;2024-01-07T13:56:58;103205.09;;;-0.14;53.58
79584;BME280;69053;57.338;18.700;2024-01-07T13:59:59;103205.00;;;-0.12;53.70
79584;BME280;69053;57.338;18.700;2024-01-07T14:03:00;103202.69;;;-0.18;54.49
79584;BME280;69053;57.338;18.700;2024-01-07T14:06:01;103209.06;;;-0.21;54.41
79584;BME280;69053;57.338;18.700;2024-01-07T14:09:01;103213.88;;;-0.28;54.08
79584;BME280;69053;57.338;18.700;2024-01-07T14:12:03;103218.63;;;-0.33;54.33
79584;BME280;69053;57.338;18.700;2024-01-07T14:15:04;103219.50;;;-0.32;54.08
79584;BME280;69053;57.338;18.700;2024-01-07T14:18:05;103224.06;;;-0.34;54.13
79584;BME280;69053;57.338;18.700;2024-01-07T14:21:05;103226.53;;;-0.47;54.55
79584;BME280;69053;57.338;18.700;2024-01-07T14:24:06;103224.66;;;-0.45;55.08
79584;BME280;69053;57.338;18.700;2024-01-07T14:27:07;103229.22;;;-0.47;54.88
79584;BME280;69053;57.338;18.700;2024-01-07T14:30:08;103229.59;;;-0.38;54.53
79584;BME280;69053;57.338;18.700;2024-01-07T14:33:09;103231.47;;;-0.40;54.45
79584;BME280;69053;57.338;18.700;2024-01-07T14:36:10;103236.31;;;-0.46;54.39
79584;BME280;69053;57.338;18.700;2024-01-07T14:39:16;103246.34;;;-0.50;55.11
79584;BME280;69053;57.338;18.700;2024-01-07T14:42:18;103246.22;;;-0.48;54.98
79584;BME280;69053;57.338;18.700;2024-01-07T14:45:19;103244.75;;;-0.54;55.27
79584;BME280;69053;57.338;18.700;2024-01-07T14:48:19;103252.63;;;-0.51;54.64
79584;BME280;69053;57.338;18.700;2024-01-07T14:51:20;103256.06;;;-0.49;55.01
79584;BME280;69053;57.338;18.700;2024-01-07T14:54:20;103254.25;;;-0.48;54.73
79584;BME280;69053;57.338;18.700;2024-01-07T14:57:21;103264.38;;;-0.20;53.76
79584;BME280;69053;57.338;18.700;2024-01-07T15:00:21;103256.19;;;-0.17;53.38
79584;BME280;69053;57.338;18.700;2024-01-07T15:03:21;103257.13;;;-0.18;53.69
79584;BME280;69053;57.338;18.700;2024-01-07T15:06:22;103260.25;;;-0.10;53.20
79584;BME280;69053;57.338;18.700;2024-01-07T15:09:24;103266.63;;;-0.12;53.47
79584;BME280;69053;57.338;18.700;2024-01-07T15:12:24;103272.25;;;-0.17;53.66
79584;BME280;69053;57.338;18.700;2024-01-07T15:15:24;103270.34;;;-0.15;54.17
79584;BME280;69053;57.338;18.700;2024-01-07T15:18:30;103277.25;;;-0.11;53.97
79584;BME280;69053;57.338;18.700;2024-01-07T15:21:30;103273.50;;;-0.07;53.79
79584;BME280;69053;57.338;18.700;2024-01-07T15:24:31;103281.44;;;-0.05;53.98
79584;BME280;69053;57.338;18.700;2024-01-07T15:27:32;103292.06;;;-0.04;53.61
79584;BME280;69053;57.338;18.700;2024-01-07T15:30:32;103289.22;;;-0.01;54.22
79584;BME280;69053;57.338;18.700;2024-01-07T15:33:32;103291.28;;;-0.06;54.34
79584;BME280;69053;57.338;18.700;2024-01-07T15:36:33;103290.88;;;0.02;54.38
79584;BME280;69053;57.338;18.700;2024-01-07T15:39:35;103298.84;;;0.04;54.26
79584;BME280;69053;57.338;18.700;2024-01-07T15:42:35;103313.00;;;0.06;54.41